sensor_id;sensor_type;location;lat;lon;timestamp;P1;durP1;ratioP1;P2;durP2;ratioP2
5555;SDS011;2801;50.972;7.856;2024-01-15T00:00:38;35.97;;;14.03;;
5555;SDS011;2801;50.972;7.856;2024-01-15T00:03:09;34.37;;;15.03;;
5555;SDS011;2801;50.972;7.856;2024-01-15T00:05:37;29.17;;;13.13;;
5555;SDS011;2801;50.972;7.856;2024-01-15T00:08:05;30.90;;;13.50;;
5555;SDS011;2801;50.972;7.856;2024-01-15T00:10:32;28.57;;;13.53;;
5555;SDS011;2801;50.972;7.856;2024-01-15T00:12:59;27.17;;;12.67;;
5555;SDS011;2801;50.972;7.856;2024-01-15T00:15:26;35.17;;;13.80;;
5555;SDS011;2801;50.972;7.856;2024-01-15T00:17:55;32.20;;;13.10;;
5555;SDS011;2801;50.972;7.856;2024-01-15T00:20:22;28.43;;;12.67;;
5555;SDS011;2801;50.972;7.856;2024-01-15T00:22:51;24.50;;;13.03;;
5555;SDS011;2801;50.972;7.856;2024-01-15T00:25:18;28.20;;;12.93;;
5555;SDS011;2801;50.972;7.856;2024-01-15T00:27:46;29.23;;;13.07;;
5555;SDS011;2801;50.972;7.856;2024-01-15T00:30:13;29.30;;;12.97;;
5555;SDS011;2801;50.972;7.856;2024-01-15T00:32:40;28.60;;;13.07;;
5555;SDS011;2801;50.972;7.856;2024-01-15T00:35:07;30.27;;;13.63;;
5555;SDS011;2801;50.972;7.856;2024-01-15T00:37:35;30.87;;;13.63;;
5555;SDS011;2801;50.972;7.856;2024-01-15T00:40:02;32.17;;;13.70;;
5555;SDS011;2801;50.972;7.856;2024-01-15T00:42:31;30.93;;;14.37;;
5555;SDS011;2801;50.972;7.856;2024-01-15T00:44:58;24.33;;;12.93;;
5555;SDS011;2801;50.972;7.856;2024-01-15T00:47:25;25.87;;;12.57;;
5555;SDS011;2801;50.972;7.856;2024-01-15T00:49:52;29.80;;;13.30;;
5555;SDS011;2801;50.972;7.856;2024-01-15T00:52:19;30.93;;;13.03;;
5555;SDS011;2801;50.972;7.856;2024-01-15T00:54:46;26.87;;;12.37;;
5555;SDS011;2801;50.972;7.856;2024-01-15T00:57:13;24.13;;;12.00;;
5555;SDS011;2801;50.972;7.856;2024-01-15T00:59:40;30.53;;;13.27;;
5555;SDS011;2801;50.972;7.856;2024-01-15T01:02:08;28.93;;;13.43;;
5555;SDS011;2801;50.972;7.856;2024-01-15T01:04:35;28.87;;;13.63;;
5555;SDS011;2801;50.972;7.856;2024-01-15T01:07:02;30.23;;;13.37;;
5555;SDS011;2801;50.972;7.856;2024-01-15T01:09:29;24.93;;;12.70;;
5555;SDS011;2801;50.972;7.856;2024-01-15T01:11:56;27.60;;;13.07;;
5555;SDS011;2801;50.972;7.856;2024-01-15T01:14:23;27.03;;;12.17;;
5555;SDS011;2801;50.972;7.856;2024-01-15T01:16:50;28.00;;;12.63;;
5555;SDS011;2801;50.972;7.856;2024-01-15T01:19:18;28.93;;;12.47;;
5555;SDS011;2801;50.972;7.856;2024-01-15T01:21:45;28.30;;;13.30;;
5555;SDS011;2801;50.972;7.856;2024-01-15T01:24:13;28.23;;;11.97;;
5555;SDS011;2801;50.972;7.856;2024-01-15T01:26:40;25.63;;;12.03;;
5555;SDS011;2801;50.972;7.856;2024-01-15T01:29:07;24.77;;;12.03;;
5555;SDS011;2801;50.972;7.856;2024-01-15T01:31:34;24.67;;;12.37;;
5555;SDS011;2801;50.972;7.856;2024-01-15T01:34:02;22.90;;;11.50;;
5555;SDS011;2801;50.972;7.856;2024-01-15T01:36:31;27.10;;;12.03;;
5555;SDS011;2801;50.972;7.856;2024-01-15T01:38:58;27.90;;;11.40;;
5555;SDS011;2801;50.972;7.856;2024-01-15T01:41:25;22.23;;;10.77;;
5555;SDS011;2801;50.972;7.856;2024-01-15T01:43:53;21.63;;;11.27;;
5555;SDS011;2801;50.972;7.856;2024-01-15T01:46:20;24.60;;;11.77;;
5555;SDS011;2801;50.972;7.856;2024-01-15T01:48:47;25.50;;;11.53;;
5555;SDS011;2801;50.972;7.856;2024-01-15T01:51:14;25.23;;;11.20;;
5555;SDS011;2801;50.972;7.856;2024-01-15T01:53:43;27.90;;;11.90;;
5555;SDS011;2801;50.972;7.856;2024-01-15T01:56:11;32.63;;;13.43;;
5555;SDS011;2801;50.972;7.856;2024-01-15T01:58:41;29.30;;;12.33;;
5555;SDS011;2801;50.972;7.856;2024-01-15T02:01:08;26.07;;;11.77;;
5555;SDS011;2801;50.972;7.856;2024-01-15T02:03:36;25.97;;;11.67;;
5555;SDS011;2801;50.972;7.856;2024-01-15T02:06:06;22.30;;;11.60;;
5555;SDS011;2801;50.972;7.856;2024-01-15T02:08:34;24.97;;;11.63;;
5555;SDS011;2801;50.972;7.856;2024-01-15T02:11:02;28.23;;;12.33;;
5555;SDS011;2801;50.972;7.856;2024-01-15T02:13:30;29.03;;;12.63;;
5555;SDS011;2801;50.972;7.856;2024-01-15T02:15:57;27.77;;;12.97;;
5555;SDS011;2801;50.972;7.856;2024-01-15T02:18:24;26.23;;;12.50;;
5555;SDS011;2801;50.972;7.856;2024-01-15T02:20:51;23.33;;;11.93;;
5555;SDS011;2801;50.972;7.856;2024-01-15T02:23:18;24.83;;;11.53;;
5555;SDS011;2801;50.972;7.856;2024-01-15T02:25:45;28.17;;;12.67;;
5555;SDS011;2801;50.972;7.856;2024-01-15T02:28:14;28.57;;;12.57;;
5555;SDS011;2801;50.972;7.856;2024-01-15T02:30:44;28.00;;;13.00;;
5555;SDS011;2801;50.972;7.856;2024-01-15T02:33:12;28.90;;;13.73;;
5555;SDS011;2801;50.972;7.856;2024-01-15T02:35:39;28.10;;;12.63;;
5555;SDS011;2801;50.972;7.856;2024-01-15T02:38:07;31.73;;;12.50;;
5555;SDS011;2801;50.972;7.856;2024-01-15T02:40:35;31.00;;;13.93;;
5555;SDS011;2801;50.972;7.856;2024-01-15T02:43:03;29.97;;;13.73;;
5555;SDS011;2801;50.972;7.856;2024-01-15T02:45:30;27.67;;;13.00;;
5555;SDS011;2801;50.972;7.856;2024-01-15T02:47:57;32.57;;;13.60;;
5555;SDS011;2801;50.972;7.856;2024-01-15T02:50:24;30.50;;;13.33;;
5555;SDS011;2801;50.972;7.856;2024-01-15T02:52:52;29.43;;;12.87;;
5555;SDS011;2801;50.972;7.856;2024-01-15T02:55:19;30.07;;;13.67;;
5555;SDS011;2801;50.972;7.856;2024-01-15T02:57:46;29.90;;;12.80;;
5555;SDS011;2801;50.972;7.856;2024-01-15T03:00:14;22.83;;;11.00;;
5555;SDS011;2801;50.972;7.856;2024-01-15T03:02:44;24.67;;;11.60;;
5555;SDS011;2801;50.972;7.856;2024-01-15T03:05:14;23.77;;;11.43;;
5555;SDS011;2801;50.972;7.856;2024-01-15T03:07:41;24.73;;;12.47;;
5555;SDS011;2801;50.972;7.856;2024-01-15T03:10:09;26.27;;;12.10;;
5555;SDS011;2801;50.972;7.856;2024-01-15T03:12:36;29.23;;;13.03;;
5555;SDS011;2801;50.972;7.856;2024-01-15T03:15:03;25.30;;;11.80;;
5555;SDS011;2801;50.972;7.856;2024-01-15T03:17:31;23.43;;;11.80;;
5555;SDS011;2801;50.972;7.856;2024-01-15T03:19:58;23.10;;;11.27;;
5555;SDS011;2801;50.972;7.856;2024-01-15T03:22:26;25.47;;;11.60;;
5555;SDS011;2801;50.972;7.856;2024-01-15T03:24:53;33.97;;;14.20;;
5555;SDS011;2801;50.972;7.856;2024-01-15T03:27:20;31.30;;;14.20;;
5555;SDS011;2801;50.972;7.856;2024-01-15T03:29:47;30.73;;;13.17;;
5555;SDS011;2801;50.972;7.856;2024-01-15T03:32:14;32.63;;;15.70;;
5555;SDS011;2801;50.972;7.856;2024-01-15T03:34:42;41.57;;;16.37;;
5555;SDS011;2801;50.972;7.856;2024-01-15T03:37:09;44.67;;;17.33;;
5555;SDS011;2801;50.972;7.856;2024-01-15T03:39:36;40.33;;;16.23;;
5555;SDS011;2801;50.972;7.856;2024-01-15T03:42:04;45.57;;;15.10;;
5555;SDS011;2801;50.972;7.856;2024-01-15T03:44:31;49.20;;;16.10;;
5555;SDS011;2801;50.972;7.856;2024-01-15T03:46:58;46.00;;;16.37;;
5555;SDS011;2801;50.972;7.856;2024-01-15T03:49:25;42.33;;;16.73;;
5555;SDS011;2801;50.972;7.856;2024-01-15T03:51:52;48.50;;;17.37;;
5555;SDS011;2801;50.972;7.856;2024-01-15T03:54:20;42.90;;;16.77;;
5555;SDS011;2801;50.972;7.856;2024-01-15T03:56:48;44.17;;;16.13;;
5555;SDS011;2801;50.972;7.856;2024-01-15T03:59:15;38.80;;;15.77;;
5555;SDS011;2801;50.972;7.856;2024-01-15T04:01:48;40.57;;;15.37;;
5555;SDS011;2801;50.972;7.856;2024-01-15T04:04:17;42.90;;;15.40;;
5555;SDS011;2801;50.972;7.856;2024-01-15T04:06:45;46.30;;;16.23;;
5555;SDS011;2801;50.972;7.856;2024-01-15T04:09:13;43.70;;;16.27;;
5555;SDS011;2801;50.972;7.856;2024-01-15T04:11:40;41.00;;;16.27;;
5555;SDS011;2801;50.972;7.856;2024-01-15T04:14:07;39.67;;;16.17;;
5555;SDS011;2801;50.972;7.856;2024-01-15T04:16:35;42.17;;;15.73;;
5555;SDS011;2801;50.972;7.856;2024-01-15T04:19:04;36.17;;;16.07;;
5555;SDS011;2801;50.972;7.856;2024-01-15T04:21:31;35.70;;;15.37;;
5555;SDS011;2801;50.972;7.856;2024-01-15T04:23:58;36.23;;;14.03;;
5555;SDS011;2801;50.972;7.856;2024-01-15T04:26:26;33.83;;;14.47;;
5555;SDS011;2801;50.972;7.856;2024-01-15T04:28:53;32.60;;;14.30;;
5555;SDS011;2801;50.972;7.856;2024-01-15T04:31:23;36.03;;;15.33;;
5555;SDS011;2801;50.972;7.856;2024-01-15T04:33:53;37.70;;;15.20;;
5555;SDS011;2801;50.972;7.856;2024-01-15T04:36:21;40.73;;;14.63;;
5555;SDS011;2801;50.972;7.856;2024-01-15T04:38:48;43.53;;;16.33;;
5555;SDS011;2801;50.972;7.856;2024-01-15T04:41:15;39.83;;;14.60;;
5555;SDS011;2801;50.972;7.856;2024-01-15T04:43:43;39.20;;;14.87;;
5555;SDS011;2801;50.972;7.856;2024-01-15T04:46:11;36.77;;;14.67;;
5555;SDS011;2801;50.972;7.856;2024-01-15T04:48:38;39.77;;;14.80;;
5555;SDS011;2801;50.972;7.856;2024-01-15T04:51:05;41.70;;;15.20;;
5555;SDS011;2801;50.972;7.856;2024-01-15T04:53:35;42.10;;;15.50;;
5555;SDS011;2801;50.972;7.856;2024-01-15T04:56:02;40.30;;;14.47;;
5555;SDS011;2801;50.972;7.856;2024-01-15T04:58:30;38.93;;;14.90;;
5555;SDS011;2801;50.972;7.856;2024-01-15T05:00:57;42.43;;;15.33;;
5555;SDS011;2801;50.972;7.856;2024-01-15T05:03:24;36.77;;;15.37;;
5555;SDS011;2801;50.972;7.856;2024-01-15T05:05:51;41.67;;;16.20;;
5555;SDS011;2801;50.972;7.856;2024-01-15T05:08:19;42.47;;;16.20;;
5555;SDS011;2801;50.972;7.856;2024-01-15T05:10:47;41.83;;;14.97;;
5555;SDS011;2801;50.972;7.856;2024-01-15T05:13:14;49.03;;;14.97;;
5555;SDS011;2801;50.972;7.856;2024-01-15T05:15:42;38.73;;;15.23;;
5555;SDS011;2801;50.972;7.856;2024-01-15T05:18:09;40.67;;;15.07;;
5555;SDS011;2801;50.972;7.856;2024-01-15T05:20:36;39.30;;;14.57;;
5555;SDS011;2801;50.972;7.856;2024-01-15T05:23:03;36.33;;;15.17;;
5555;SDS011;2801;50.972;7.856;2024-01-15T05:25:30;44.27;;;15.30;;
5555;SDS011;2801;50.972;7.856;2024-01-15T05:27:57;40.77;;;15.83;;
5555;SDS011;2801;50.972;7.856;2024-01-15T05:30:25;36.30;;;13.80;;
5555;SDS011;2801;50.972;7.856;2024-01-15T05:32:52;34.63;;;14.30;;
5555;SDS011;2801;50.972;7.856;2024-01-15T05:35:19;36.77;;;15.93;;
5555;SDS011;2801;50.972;7.856;2024-01-15T05:37:46;34.30;;;14.77;;
5555;SDS011;2801;50.972;7.856;2024-01-15T05:40:14;38.07;;;13.13;;
5555;SDS011;2801;50.972;7.856;2024-01-15T05:42:41;31.00;;;13.27;;
5555;SDS011;2801;50.972;7.856;2024-01-15T05:45:08;32.70;;;13.70;;
5555;SDS011;2801;50.972;7.856;2024-01-15T05:47:36;38.87;;;14.83;;
5555;SDS011;2801;50.972;7.856;2024-01-15T05:50:03;32.67;;;13.63;;
5555;SDS011;2801;50.972;7.856;2024-01-15T05:52:31;34.10;;;14.50;;
5555;SDS011;2801;50.972;7.856;2024-01-15T05:54:58;33.57;;;12.77;;
5555;SDS011;2801;50.972;7.856;2024-01-15T05:57:25;36.93;;;14.30;;
5555;SDS011;2801;50.972;7.856;2024-01-15T05:59:52;33.77;;;13.53;;
5555;SDS011;2801;50.972;7.856;2024-01-15T06:02:21;32.30;;;13.47;;
5555;SDS011;2801;50.972;7.856;2024-01-15T06:04:47;36.10;;;13.03;;
5555;SDS011;2801;50.972;7.856;2024-01-15T06:07:16;38.60;;;14.87;;
5555;SDS011;2801;50.972;7.856;2024-01-15T06:09:43;35.97;;;14.07;;
5555;SDS011;2801;50.972;7.856;2024-01-15T06:12:10;35.17;;;13.87;;
5555;SDS011;2801;50.972;7.856;2024-01-15T06:14:38;32.83;;;13.17;;
5555;SDS011;2801;50.972;7.856;2024-01-15T06:17:05;30.20;;;12.27;;
5555;SDS011;2801;50.972;7.856;2024-01-15T06:19:31;37.93;;;14.43;;
5555;SDS011;2801;50.972;7.856;2024-01-15T06:21:59;35.93;;;14.17;;
5555;SDS011;2801;50.972;7.856;2024-01-15T06:24:26;31.70;;;13.80;;
5555;SDS011;2801;50.972;7.856;2024-01-15T06:26:53;34.53;;;13.07;;
5555;SDS011;2801;50.972;7.856;2024-01-15T06:29:20;35.07;;;14.47;;
5555;SDS011;2801;50.972;7.856;2024-01-15T06:31:47;30.77;;;13.37;;
5555;SDS011;2801;50.972;7.856;2024-01-15T06:34:15;27.23;;;12.47;;
5555;SDS011;2801;50.972;7.856;2024-01-15T06:36:42;35.33;;;14.53;;
5555;SDS011;2801;50.972;7.856;2024-01-15T06:39:10;31.73;;;13.80;;
5555;SDS011;2801;50.972;7.856;2024-01-15T06:41:37;34.87;;;13.50;;
5555;SDS011;2801;50.972;7.856;2024-01-15T06:44:10;30.70;;;13.73;;
5555;SDS011;2801;50.972;7.856;2024-01-15T06:46:47;32.70;;;13.40;;
5555;SDS011;2801;50.972;7.856;2024-01-15T06:49:14;37.40;;;17.63;;
5555;SDS011;2801;50.972;7.856;2024-01-15T06:51:42;33.17;;;13.80;;
5555;SDS011;2801;50.972;7.856;2024-01-15T06:54:12;34.07;;;15.70;;
5555;SDS011;2801;50.972;7.856;2024-01-15T06:56:40;28.27;;;13.33;;
5555;SDS011;2801;50.972;7.856;2024-01-15T06:59:07;31.17;;;13.87;;
5555;SDS011;2801;50.972;7.856;2024-01-15T07:01:34;30.80;;;13.07;;
5555;SDS011;2801;50.972;7.856;2024-01-15T07:04:01;31.47;;;13.23;;
5555;SDS011;2801;50.972;7.856;2024-01-15T07:06:29;28.77;;;12.17;;
5555;SDS011;2801;50.972;7.856;2024-01-15T07:08:57;27.10;;;12.80;;
5555;SDS011;2801;50.972;7.856;2024-01-15T07:11:24;25.33;;;11.23;;
5555;SDS011;2801;50.972;7.856;2024-01-15T07:13:52;25.00;;;11.17;;
5555;SDS011;2801;50.972;7.856;2024-01-15T07:16:19;27.10;;;10.43;;
5555;SDS011;2801;50.972;7.856;2024-01-15T07:19:02;29.87;;;11.73;;
5555;SDS011;2801;50.972;7.856;2024-01-15T07:21:30;24.70;;;11.40;;
5555;SDS011;2801;50.972;7.856;2024-01-15T07:23:57;28.80;;;12.33;;
5555;SDS011;2801;50.972;7.856;2024-01-15T07:26:24;28.63;;;12.70;;
5555;SDS011;2801;50.972;7.856;2024-01-15T07:28:52;27.60;;;11.93;;
5555;SDS011;2801;50.972;7.856;2024-01-15T07:31:19;24.63;;;11.80;;
5555;SDS011;2801;50.972;7.856;2024-01-15T07:33:49;20.20;;;9.80;;
5555;SDS011;2801;50.972;7.856;2024-01-15T07:36:17;26.13;;;10.17;;
5555;SDS011;2801;50.972;7.856;2024-01-15T07:38:44;23.87;;;10.23;;
5555;SDS011;2801;50.972;7.856;2024-01-15T07:41:12;18.40;;;9.87;;
5555;SDS011;2801;50.972;7.856;2024-01-15T07:43:41;19.67;;;9.63;;
5555;SDS011;2801;50.972;7.856;2024-01-15T07:46:08;18.07;;;8.70;;
5555;SDS011;2801;50.972;7.856;2024-01-15T07:48:35;16.30;;;8.40;;
5555;SDS011;2801;50.972;7.856;2024-01-15T07:51:03;16.83;;;8.77;;
5555;SDS011;2801;50.972;7.856;2024-01-15T07:53:30;17.10;;;8.63;;
5555;SDS011;2801;50.972;7.856;2024-01-15T07:55:57;18.20;;;8.70;;
5555;SDS011;2801;50.972;7.856;2024-01-15T07:58:24;18.17;;;9.50;;
5555;SDS011;2801;50.972;7.856;2024-01-15T08:00:52;14.50;;;7.60;;
5555;SDS011;2801;50.972;7.856;2024-01-15T08:03:19;16.23;;;9.33;;
5555;SDS011;2801;50.972;7.856;2024-01-15T08:05:46;21.03;;;10.13;;
5555;SDS011;2801;50.972;7.856;2024-01-15T08:08:14;17.47;;;9.80;;
5555;SDS011;2801;50.972;7.856;2024-01-15T08:10:41;18.50;;;9.67;;
5555;SDS011;2801;50.972;7.856;2024-01-15T08:13:08;20.10;;;9.60;;
5555;SDS011;2801;50.972;7.856;2024-01-15T08:15:35;15.70;;;7.77;;
5555;SDS011;2801;50.972;7.856;2024-01-15T08:18:03;18.17;;;10.00;;
5555;SDS011;2801;50.972;7.856;2024-01-15T08:20:30;17.93;;;9.00;;
5555;SDS011;2801;50.972;7.856;2024-01-15T08:22:58;18.00;;;10.77;;
5555;SDS011;2801;50.972;7.856;2024-01-15T08:25:25;13.97;;;7.80;;
5555;SDS011;2801;50.972;7.856;2024-01-15T08:27:52;18.33;;;8.47;;
5555;SDS011;2801;50.972;7.856;2024-01-15T08:30:19;13.57;;;7.43;;
5555;SDS011;2801;50.972;7.856;2024-01-15T08:32:47;12.73;;;7.63;;
5555;SDS011;2801;50.972;7.856;2024-01-15T08:35:14;12.97;;;7.33;;
5555;SDS011;2801;50.972;7.856;2024-01-15T08:37:42;13.90;;;7.93;;
5555;SDS011;2801;50.972;7.856;2024-01-15T08:40:09;14.50;;;7.67;;
5555;SDS011;2801;50.972;7.856;2024-01-15T08:42:37;14.17;;;7.70;;
5555;SDS011;2801;50.972;7.856;2024-01-15T08:45:04;11.97;;;7.13;;
5555;SDS011;2801;50.972;7.856;2024-01-15T08:47:32;13.70;;;7.07;;
5555;SDS011;2801;50.972;7.856;2024-01-15T08:49:59;14.03;;;8.17;;
5555;SDS011;2801;50.972;7.856;2024-01-15T08:52:27;15.17;;;7.73;;
5555;SDS011;2801;50.972;7.856;2024-01-15T08:54:56;15.07;;;8.73;;
5555;SDS011;2801;50.972;7.856;2024-01-15T08:57:24;18.07;;;8.50;;
5555;SDS011;2801;50.972;7.856;2024-01-15T08:59:51;14.23;;;8.10;;
5555;SDS011;2801;50.972;7.856;2024-01-15T09:02:21;16.80;;;8.83;;
5555;SDS011;2801;50.972;7.856;2024-01-15T09:04:48;14.37;;;8.43;;
5555;SDS011;2801;50.972;7.856;2024-01-15T09:07:15;15.80;;;8.33;;
5555;SDS011;2801;50.972;7.856;2024-01-15T09:09:42;19.87;;;9.70;;
5555;SDS011;2801;50.972;7.856;2024-01-15T09:12:09;18.50;;;9.93;;
5555;SDS011;2801;50.972;7.856;2024-01-15T09:14:37;19.27;;;9.83;;
5555;SDS011;2801;50.972;7.856;2024-01-15T09:17:06;21.43;;;9.73;;
5555;SDS011;2801;50.972;7.856;2024-01-15T09:19:33;17.90;;;10.03;;
5555;SDS011;2801;50.972;7.856;2024-01-15T09:22:00;15.00;;;9.03;;
5555;SDS011;2801;50.972;7.856;2024-01-15T09:24:28;16.57;;;8.63;;
5555;SDS011;2801;50.972;7.856;2024-01-15T09:26:55;15.07;;;8.10;;
5555;SDS011;2801;50.972;7.856;2024-01-15T09:29:22;17.97;;;9.60;;
5555;SDS011;2801;50.972;7.856;2024-01-15T09:31:54;19.03;;;10.23;;
5555;SDS011;2801;50.972;7.856;2024-01-15T09:34:22;19.37;;;10.20;;
5555;SDS011;2801;50.972;7.856;2024-01-15T09:36:49;19.30;;;9.73;;
5555;SDS011;2801;50.972;7.856;2024-01-15T09:39:17;22.63;;;11.20;;
5555;SDS011;2801;50.972;7.856;2024-01-15T09:41:44;25.57;;;12.20;;
5555;SDS011;2801;50.972;7.856;2024-01-15T09:44:12;28.07;;;13.10;;
5555;SDS011;2801;50.972;7.856;2024-01-15T09:46:40;27.43;;;12.53;;
5555;SDS011;2801;50.972;7.856;2024-01-15T09:49:09;20.63;;;10.70;;
5555;SDS011;2801;50.972;7.856;2024-01-15T09:51:37;25.03;;;12.37;;
5555;SDS011;2801;50.972;7.856;2024-01-15T09:54:06;26.80;;;12.37;;
5555;SDS011;2801;50.972;7.856;2024-01-15T09:56:35;22.03;;;10.57;;
5555;SDS011;2801;50.972;7.856;2024-01-15T09:59:02;19.10;;;11.03;;
5555;SDS011;2801;50.972;7.856;2024-01-15T10:01:33;19.30;;;10.13;;
5555;SDS011;2801;50.972;7.856;2024-01-15T10:04:03;20.07;;;10.20;;
5555;SDS011;2801;50.972;7.856;2024-01-15T10:06:30;16.17;;;8.93;;
5555;SDS011;2801;50.972;7.856;2024-01-15T10:08:58;17.30;;;9.17;;
5555;SDS011;2801;50.972;7.856;2024-01-15T10:11:27;23.27;;;10.90;;
5555;SDS011;2801;50.972;7.856;2024-01-15T10:13:54;17.07;;;9.47;;
5555;SDS011;2801;50.972;7.856;2024-01-15T10:16:23;19.07;;;9.67;;
5555;SDS011;2801;50.972;7.856;2024-01-15T10:18:51;15.73;;;8.30;;
5555;SDS011;2801;50.972;7.856;2024-01-15T10:21:18;16.10;;;9.03;;
5555;SDS011;2801;50.972;7.856;2024-01-15T10:23:46;17.37;;;9.40;;
5555;SDS011;2801;50.972;7.856;2024-01-15T10:26:13;16.57;;;9.33;;
5555;SDS011;2801;50.972;7.856;2024-01-15T10:28:44;16.73;;;9.03;;
5555;SDS011;2801;50.972;7.856;2024-01-15T10:31:11;16.97;;;8.77;;
5555;SDS011;2801;50.972;7.856;2024-01-15T10:33:38;12.33;;;7.40;;
5555;SDS011;2801;50.972;7.856;2024-01-15T10:36:06;16.50;;;7.77;;
5555;SDS011;2801;50.972;7.856;2024-01-15T10:38:37;13.73;;;7.97;;
5555;SDS011;2801;50.972;7.856;2024-01-15T10:41:04;12.83;;;7.03;;
5555;SDS011;2801;50.972;7.856;2024-01-15T10:43:32;11.80;;;7.03;;
5555;SDS011;2801;50.972;7.856;2024-01-15T10:46:00;10.67;;;7.30;;
5555;SDS011;2801;50.972;7.856;2024-01-15T10:48:28;12.73;;;7.30;;
5555;SDS011;2801;50.972;7.856;2024-01-15T10:50:57;12.27;;;6.27;;
5555;SDS011;2801;50.972;7.856;2024-01-15T10:53:24;14.10;;;7.60;;
5555;SDS011;2801;50.972;7.856;2024-01-15T10:55:52;11.40;;;6.67;;
5555;SDS011;2801;50.972;7.856;2024-01-15T10:58:20;10.17;;;6.10;;
5555;SDS011;2801;50.972;7.856;2024-01-15T11:00:49;13.27;;;6.90;;
5555;SDS011;2801;50.972;7.856;2024-01-15T11:03:17;9.20;;;5.83;;
5555;SDS011;2801;50.972;7.856;2024-01-15T11:05:45;10.90;;;6.50;;
5555;SDS011;2801;50.972;7.856;2024-01-15T11:08:13;10.47;;;6.43;;
5555;SDS011;2801;50.972;7.856;2024-01-15T11:10:50;10.73;;;6.03;;
5555;SDS011;2801;50.972;7.856;2024-01-15T11:13:22;10.83;;;6.03;;
5555;SDS011;2801;50.972;7.856;2024-01-15T11:16:07;10.50;;;6.03;;
5555;SDS011;2801;50.972;7.856;2024-01-15T11:18:37;12.10;;;6.20;;
5555;SDS011;2801;50.972;7.856;2024-01-15T11:23:47;10.07;;;5.77;;
5555;SDS011;2801;50.972;7.856;2024-01-15T11:32:09;7.87;;;4.83;;
5555;SDS011;2801;50.972;7.856;2024-01-15T11:34:56;9.20;;;5.60;;
5555;SDS011;2801;50.972;7.856;2024-01-15T11:37:29;8.37;;;5.00;;
5555;SDS011;2801;50.972;7.856;2024-01-15T11:40:21;5.83;;;4.43;;
5555;SDS011;2801;50.972;7.856;2024-01-15T11:43:05;6.30;;;4.03;;
5555;SDS011;2801;50.972;7.856;2024-01-15T11:45:33;6.40;;;4.17;;
5555;SDS011;2801;50.972;7.856;2024-01-15T11:48:11;6.13;;;3.70;;
5555;SDS011;2801;50.972;7.856;2024-01-15T11:50:42;5.87;;;3.60;;
5555;SDS011;2801;50.972;7.856;2024-01-15T11:53:17;5.87;;;3.53;;
5555;SDS011;2801;50.972;7.856;2024-01-15T11:56:09;7.10;;;3.10;;
5555;SDS011;2801;50.972;7.856;2024-01-15T11:58:45;4.80;;;2.93;;
5555;SDS011;2801;50.972;7.856;2024-01-15T12:01:13;5.43;;;3.07;;
5555;SDS011;2801;50.972;7.856;2024-01-15T12:03:40;4.17;;;2.73;;
5555;SDS011;2801;50.972;7.856;2024-01-15T12:06:08;4.93;;;2.60;;
5555;SDS011;2801;50.972;7.856;2024-01-15T12:08:37;3.23;;;2.53;;
5555;SDS011;2801;50.972;7.856;2024-01-15T12:11:07;4.23;;;2.43;;
5555;SDS011;2801;50.972;7.856;2024-01-15T12:13:40;3.20;;;2.30;;
5555;SDS011;2801;50.972;7.856;2024-01-15T12:16:07;3.33;;;2.00;;
5555;SDS011;2801;50.972;7.856;2024-01-15T12:18:34;3.47;;;2.40;;
5555;SDS011;2801;50.972;7.856;2024-01-15T12:21:03;3.30;;;1.97;;
5555;SDS011;2801;50.972;7.856;2024-01-15T12:23:30;2.97;;;2.17;;
5555;SDS011;2801;50.972;7.856;2024-01-15T12:25:58;2.93;;;1.87;;
5555;SDS011;2801;50.972;7.856;2024-01-15T12:28:27;3.03;;;2.00;;
5555;SDS011;2801;50.972;7.856;2024-01-15T12:30:55;4.33;;;2.13;;
5555;SDS011;2801;50.972;7.856;2024-01-15T12:33:22;3.80;;;2.30;;
5555;SDS011;2801;50.972;7.856;2024-01-15T12:35:52;3.10;;;2.20;;
5555;SDS011;2801;50.972;7.856;2024-01-15T12:38:20;5.07;;;2.83;;
5555;SDS011;2801;50.972;7.856;2024-01-15T12:40:47;6.70;;;2.80;;
5555;SDS011;2801;50.972;7.856;2024-01-15T12:43:15;4.40;;;3.20;;
5555;SDS011;2801;50.972;7.856;2024-01-15T12:45:42;3.70;;;2.83;;
5555;SDS011;2801;50.972;7.856;2024-01-15T12:48:09;6.80;;;3.30;;
5555;SDS011;2801;50.972;7.856;2024-01-15T12:50:37;5.10;;;3.50;;
5555;SDS011;2801;50.972;7.856;2024-01-15T12:53:04;4.50;;;3.57;;
5555;SDS011;2801;50.972;7.856;2024-01-15T12:55:31;7.13;;;3.20;;
5555;SDS011;2801;50.972;7.856;2024-01-15T12:58:01;5.60;;;3.27;;
5555;SDS011;2801;50.972;7.856;2024-01-15T13:00:28;6.47;;;3.50;;
5555;SDS011;2801;50.972;7.856;2024-01-15T13:02:56;7.30;;;4.17;;
5555;SDS011;2801;50.972;7.856;2024-01-15T13:05:24;6.50;;;3.63;;
5555;SDS011;2801;50.972;7.856;2024-01-15T13:07:53;5.97;;;3.63;;
5555;SDS011;2801;50.972;7.856;2024-01-15T13:10:21;9.20;;;3.90;;
5555;SDS011;2801;50.972;7.856;2024-01-15T13:12:51;6.07;;;3.90;;
5555;SDS011;2801;50.972;7.856;2024-01-15T13:15:18;9.10;;;3.83;;
5555;SDS011;2801;50.972;7.856;2024-01-15T13:17:45;7.57;;;4.43;;
5555;SDS011;2801;50.972;7.856;2024-01-15T13:20:13;9.13;;;4.30;;
5555;SDS011;2801;50.972;7.856;2024-01-15T13:22:40;7.57;;;4.80;;
5555;SDS011;2801;50.972;7.856;2024-01-15T13:25:11;7.13;;;4.53;;
5555;SDS011;2801;50.972;7.856;2024-01-15T13:27:38;6.00;;;4.57;;
5555;SDS011;2801;50.972;7.856;2024-01-15T13:30:08;7.63;;;5.40;;
5555;SDS011;2801;50.972;7.856;2024-01-15T13:32:36;9.80;;;4.73;;
5555;SDS011;2801;50.972;7.856;2024-01-15T13:35:04;8.77;;;5.13;;
5555;SDS011;2801;50.972;7.856;2024-01-15T13:37:34;9.70;;;5.27;;
5555;SDS011;2801;50.972;7.856;2024-01-15T13:40:01;7.33;;;4.90;;
5555;SDS011;2801;50.972;7.856;2024-01-15T13:42:30;7.97;;;5.50;;
5555;SDS011;2801;50.972;7.856;2024-01-15T13:44:57;8.60;;;4.70;;
5555;SDS011;2801;50.972;7.856;2024-01-15T13:47:24;5.30;;;4.23;;
5555;SDS011;2801;50.972;7.856;2024-01-15T13:49:51;8.87;;;5.07;;
5555;SDS011;2801;50.972;7.856;2024-01-15T13:52:19;7.60;;;4.87;;
5555;SDS011;2801;50.972;7.856;2024-01-15T13:54:45;6.00;;;4.33;;
5555;SDS011;2801;50.972;7.856;2024-01-15T13:57:16;9.30;;;5.10;;
5555;SDS011;2801;50.972;7.856;2024-01-15T13:59:47;7.63;;;5.60;;
5555;SDS011;2801;50.972;7.856;2024-01-15T14:02:15;7.37;;;5.10;;
5555;SDS011;2801;50.972;7.856;2024-01-15T14:04:47;6.70;;;4.80;;
5555;SDS011;2801;50.972;7.856;2024-01-15T14:07:15;9.27;;;5.53;;
5555;SDS011;2801;50.972;7.856;2024-01-15T14:09:43;8.27;;;5.77;;
5555;SDS011;2801;50.972;7.856;2024-01-15T14:12:10;13.97;;;5.20;;
5555;SDS011;2801;50.972;7.856;2024-01-15T14:14:38;13.00;;;5.43;;
5555;SDS011;2801;50.972;7.856;2024-01-15T14:17:06;11.13;;;5.70;;
5555;SDS011;2801;50.972;7.856;2024-01-15T14:19:34;10.33;;;6.03;;
5555;SDS011;2801;50.972;7.856;2024-01-15T14:22:02;13.67;;;6.17;;
5555;SDS011;2801;50.972;7.856;2024-01-15T14:24:30;10.37;;;6.00;;
5555;SDS011;2801;50.972;7.856;2024-01-15T14:26:57;8.83;;;5.57;;
5555;SDS011;2801;50.972;7.856;2024-01-15T14:29:25;9.97;;;6.07;;
5555;SDS011;2801;50.972;7.856;2024-01-15T14:31:53;9.27;;;5.40;;
5555;SDS011;2801;50.972;7.856;2024-01-15T14:34:20;9.60;;;5.80;;
5555;SDS011;2801;50.972;7.856;2024-01-15T14:36:50;8.80;;;5.03;;
5555;SDS011;2801;50.972;7.856;2024-01-15T14:39:21;10.10;;;5.13;;
5555;SDS011;2801;50.972;7.856;2024-01-15T14:41:50;8.07;;;5.27;;
5555;SDS011;2801;50.972;7.856;2024-01-15T14:44:17;20.17;;;7.37;;
5555;SDS011;2801;50.972;7.856;2024-01-15T14:46:45;10.47;;;6.23;;
5555;SDS011;2801;50.972;7.856;2024-01-15T14:49:13;11.73;;;5.50;;
5555;SDS011;2801;50.972;7.856;2024-01-15T14:51:41;9.97;;;4.93;;
5555;SDS011;2801;50.972;7.856;2024-01-15T14:54:10;11.03;;;5.47;;
5555;SDS011;2801;50.972;7.856;2024-01-15T14:56:37;9.50;;;5.70;;
5555;SDS011;2801;50.972;7.856;2024-01-15T14:59:04;9.67;;;5.67;;
5555;SDS011;2801;50.972;7.856;2024-01-15T15:01:31;7.60;;;5.50;;
5555;SDS011;2801;50.972;7.856;2024-01-15T15:03:58;13.13;;;6.40;;
5555;SDS011;2801;50.972;7.856;2024-01-15T15:06:26;12.00;;;5.87;;
5555;SDS011;2801;50.972;7.856;2024-01-15T15:08:54;10.93;;;5.37;;